sensor_id;sensor_type;location;lat;lon;timestamp;temperature;humidity
62363;DHT22;48396;48.426;1.500;2023-05-01T00:02:13;18.40;72.50
62363;DHT22;48396;48.426;1.500;2023-05-01T00:04:38;18.40;72.60
62363;DHT22;48396;48.426;1.500;2023-05-01T00:07:04;18.30;72.60
62363;DHT22;48396;48.426;1.500;2023-05-01T00:09:29;18.30;72.60
62363;DHT22;48396;48.426;1.500;2023-05-01T00:11:56;18.30;72.60
62363;DHT22;48396;48.426;1.500;2023-05-01T00:14:22;18.20;72.60
62363;DHT22;48396;48.426;1.500;2023-05-01T00:16:47;18.20;72.70
62363;DHT22;48396;48.426;1.500;2023-05-01T00:19:13;18.20;72.60
62363;DHT22;48396;48.426;1.500;2023-05-01T00:21:43;18.20;72.60
62363;DHT22;48396;48.426;1.500;2023-05-01T00:24:10;18.20;72.60
62363;DHT22;48396;48.426;1.500;2023-05-01T00:29:19;18.10;72.90
62363;DHT22;48396;48.426;1.500;2023-05-01T00:31:46;18.10;73.00
62363;DHT22;48396;48.426;1.500;2023-05-01T00:34:11;18.10;72.90
62363;DHT22;48396;48.426;1.500;2023-05-01T00:36:38;18.10;72.90
62363;DHT22;48396;48.426;1.500;2023-05-01T00:39:03;18.10;72.90
62363;DHT22;48396;48.426;1.500;2023-05-01T00:41:30;18.20;73.00
62363;DHT22;48396;48.426;1.500;2023-05-01T00:43:55;18.10;73.20
62363;DHT22;48396;48.426;1.500;2023-05-01T00:46:22;18.10;73.40
62363;DHT22;48396;48.426;1.500;2023-05-01T00:48:48;18.10;73.60
62363;DHT22;48396;48.426;1.500;2023-05-01T00:51:13;18.10;73.80
62363;DHT22;48396;48.426;1.500;2023-05-01T00:53:40;18.20;73.90
62363;DHT22;48396;48.426;1.500;2023-05-01T00:56:06;18.20;74.10
62363;DHT22;48396;48.426;1.500;2023-05-01T00:58:33;18.20;74.30
62363;DHT22;48396;48.426;1.500;2023-05-01T01:00:58;18.20;74.50
62363;DHT22;48396;48.426;1.500;2023-05-01T01:03:24;18.20;74.80
62363;DHT22;48396;48.426;1.500;2023-05-01T01:08:34;18.20;74.80
62363;DHT22;48396;48.426;1.500;2023-05-01T01:13:55;18.20;75.00
62363;DHT22;48396;48.426;1.500;2023-05-01T01:21:45;18.10;75.60
62363;DHT22;48396;48.426;1.500;2023-05-01T01:24:35;18.00;76.00
62363;DHT22;48396;48.426;1.500;2023-05-01T01:27:32;18.00;75.90
62363;DHT22;48396;48.426;1.500;2023-05-01T01:35:54;18.00;76.60
62363;DHT22;48396;48.426;1.500;2023-05-01T01:38:27;18.00;76.70
62363;DHT22;48396;48.426;1.500;2023-05-01T01:41:09;18.00;76.90
62363;DHT22;48396;48.426;1.500;2023-05-01T01:43:43;18.00;76.90
62363;DHT22;48396;48.426;1.500;2023-05-01T01:46:10;18.00;77.10
62363;DHT22;48396;48.426;1.500;2023-05-01T01:48:40;17.90;77.10
62363;DHT22;48396;48.426;1.500;2023-05-01T01:51:15;17.90;77.40
62363;DHT22;48396;48.426;1.500;2023-05-01T01:53:49;17.90;77.40
62363;DHT22;48396;48.426;1.500;2023-05-01T01:56:17;17.90;77.60
62363;DHT22;48396;48.426;1.500;2023-05-01T01:58:44;17.90;77.80
62363;DHT22;48396;48.426;1.500;2023-05-01T02:01:12;17.90;78.00
62363;DHT22;48396;48.426;1.500;2023-05-01T02:03:40;17.90;78.10
62363;DHT22;48396;48.426;1.500;2023-05-01T02:06:07;17.90;78.30
62363;DHT22;48396;48.426;1.500;2023-05-01T02:08:34;17.90;78.50
62363;DHT22;48396;48.426;1.500;2023-05-01T02:11:02;17.80;78.70
62363;DHT22;48396;48.426;1.500;2023-05-01T02:13:28;17.80;78.90
62363;DHT22;48396;48.426;1.500;2023-05-01T02:15:57;17.80;79.00
62363;DHT22;48396;48.426;1.500;2023-05-01T02:18:25;17.80;79.20
62363;DHT22;48396;48.426;1.500;2023-05-01T02:20:52;17.70;79.60
62363;DHT22;48396;48.426;1.500;2023-05-01T02:23:18;17.70;79.90
62363;DHT22;48396;48.426;1.500;2023-05-01T02:25:44;17.60;80.60
62363;DHT22;48396;48.426;1.500;2023-05-01T02:28:14;17.40;81.20
62363;DHT22;48396;48.426;1.500;2023-05-01T02:30:43;17.40;81.50
62363;DHT22;48396;48.426;1.500;2023-05-01T02:33:11;17.30;81.70
62363;DHT22;48396;48.426;1.500;2023-05-01T02:35:41;17.20;82.30
62363;DHT22;48396;48.426;1.500;2023-05-01T02:38:09;17.20;82.60
62363;DHT22;48396;48.426;1.500;2023-05-01T02:40:38;17.20;82.40
62363;DHT22;48396;48.426;1.500;2023-05-01T02:43:07;17.30;82.30
62363;DHT22;48396;48.426;1.500;2023-05-01T02:45:36;17.30;82.30
62363;DHT22;48396;48.426;1.500;2023-05-01T02:48:04;17.20;82.30
62363;DHT22;48396;48.426;1.500;2023-05-01T02:50:32;17.30;82.30
62363;DHT22;48396;48.426;1.500;2023-05-01T02:52:58;17.30;82.20
62363;DHT22;48396;48.426;1.500;2023-05-01T02:55:25;17.40;82.10
62363;DHT22;48396;48.426;1.500;2023-05-01T02:57:50;17.40;81.90
62363;DHT22;48396;48.426;1.500;2023-05-01T03:00:16;17.40;81.70
62363;DHT22;48396;48.426;1.500;2023-05-01T03:02:43;17.30;81.60
62363;DHT22;48396;48.426;1.500;2023-05-01T03:05:27;17.30;81.60
62363;DHT22;48396;48.426;1.500;2023-05-01T03:07:53;17.30;81.50
62363;DHT22;48396;48.426;1.500;2023-05-01T03:10:18;17.20;81.40
62363;DHT22;48396;48.426;1.500;2023-05-01T03:12:44;17.20;81.50
62363;DHT22;48396;48.426;1.500;2023-05-01T03:15:10;17.00;81.70
62363;DHT22;48396;48.426;1.500;2023-05-01T03:17:38;17.10;81.80
62363;DHT22;48396;48.426;1.500;2023-05-01T03:20:04;17.10;81.70
62363;DHT22;48396;48.426;1.500;2023-05-01T03:22:33;17.10;81.70
62363;DHT22;48396;48.426;1.500;2023-05-01T03:25:00;17.00;81.60
62363;DHT22;48396;48.426;1.500;2023-05-01T03:27:25;17.00;81.60
62363;DHT22;48396;48.426;1.500;2023-05-01T03:29:51;17.10;81.60
62363;DHT22;48396;48.426;1.500;2023-05-01T03:32:17;17.20;81.50
62363;DHT22;48396;48.426;1.500;2023-05-01T03:34:42;17.00;81.40
62363;DHT22;48396;48.426;1.500;2023-05-01T03:37:09;17.00;81.70
62363;DHT22;48396;48.426;1.500;2023-05-01T03:39:34;17.00;81.70
62363;DHT22;48396;48.426;1.500;2023-05-01T03:42:01;17.00;81.50
62363;DHT22;48396;48.426;1.500;2023-05-01T03:44:26;17.10;81.50
62363;DHT22;48396;48.426;1.500;2023-05-01T03:46:52;17.10;81.40
62363;DHT22;48396;48.426;1.500;2023-05-01T03:49:18;17.20;81.40
62363;DHT22;48396;48.426;1.500;2023-05-01T03:51:44;17.20;81.30
62363;DHT22;48396;48.426;1.500;2023-05-01T03:54:09;17.10;81.40
62363;DHT22;48396;48.426;1.500;2023-05-01T03:56:35;17.10;81.60
62363;DHT22;48396;48.426;1.500;2023-05-01T03:59:01;17.10;81.50
62363;DHT22;48396;48.426;1.500;2023-05-01T04:01:26;17.10;81.50
62363;DHT22;48396;48.426;1.500;2023-05-01T04:03:52;17.10;81.50
62363;DHT22;48396;48.426;1.500;2023-05-01T04:06:18;17.10;81.60
62363;DHT22;48396;48.426;1.500;2023-05-01T04:08:44;17.10;81.70
62363;DHT22;48396;48.426;1.500;2023-05-01T04:11:09;17.10;81.70
62363;DHT22;48396;48.426;1.500;2023-05-01T04:13:35;17.00;81.70
62363;DHT22;48396;48.426;1.500;2023-05-01T04:16:01;17.10;81.90
62363;DHT22;48396;48.426;1.500;2023-05-01T04:18:27;17.00;81.90
62363;DHT22;48396;48.426;1.500;2023-05-01T04:20:52;16.90;82.20
62363;DHT22;48396;48.426;1.500;2023-05-01T04:23:18;16.90;82.30
62363;DHT22;48396;48.426;1.500;2023-05-01T04:25:44;17.00;82.30
62363;DHT22;48396;48.426;1.500;2023-05-01T04:28:11;17.00;82.30
62363;DHT22;48396;48.426;1.500;2023-05-01T04:30:37;16.90;82.40
62363;DHT22;48396;48.426;1.500;2023-05-01T04:33:03;16.80;82.50
62363;DHT22;48396;48.426;1.500;2023-05-01T04:35:47;16.90;82.70
62363;DHT22;48396;48.426;1.500;2023-05-01T04:38:13;16.90;82.60
62363;DHT22;48396;48.426;1.500;2023-05-01T04:40:39;16.90;82.70
62363;DHT22;48396;48.426;1.500;2023-05-01T04:43:04;16.90;82.80
62363;DHT22;48396;48.426;1.500;2023-05-01T04:45:31;17.00;82.70
62363;DHT22;48396;48.426;1.500;2023-05-01T04:47:56;17.00;82.70
62363;DHT22;48396;48.426;1.500;2023-05-01T04:50:22;17.00;82.80
62363;DHT22;48396;48.426;1.500;2023-05-01T04:52:48;17.00;82.80
62363;DHT22;48396;48.426;1.500;2023-05-01T04:55:14;17.00;82.80
62363;DHT22;48396;48.426;1.500;2023-05-01T04:57:39;17.00;82.90
62363;DHT22;48396;48.426;1.500;2023-05-01T05:00:06;17.00;83.10
62363;DHT22;48396;48.426;1.500;2023-05-01T05:02:32;17.00;83.20
62363;DHT22;48396;48.426;1.500;2023-05-01T05:04:57;17.00;83.20
62363;DHT22;48396;48.426;1.500;2023-05-01T05:07:23;17.00;83.30
62363;DHT22;48396;48.426;1.500;2023-05-01T05:09:49;17.00;83.50
62363;DHT22;48396;48.426;1.500;2023-05-01T05:12:14;16.90;83.60
62363;DHT22;48396;48.426;1.500;2023-05-01T05:14:41;16.90;83.90
62363;DHT22;48396;48.426;1.500;2023-05-01T05:17:07;16.80;83.90
62363;DHT22;48396;48.426;1.500;2023-05-01T05:19:32;16.90;84.20
62363;DHT22;48396;48.426;1.500;2023-05-01T05:22:01;16.80;84.60
62363;DHT22;48396;48.426;1.500;2023-05-01T05:24:26;16.70;84.70
62363;DHT22;48396;48.426;1.500;2023-05-01T05:26:52;16.70;85.10
62363;DHT22;48396;48.426;1.500;2023-05-01T05:29:19;16.60;85.60
62363;DHT22;48396;48.426;1.500;2023-05-01T05:31:44;16.60;85.60
62363;DHT22;48396;48.426;1.500;2023-05-01T05:34:11;16.60;85.70
62363;DHT22;48396;48.426;1.500;2023-05-01T05:36:37;16.70;85.80
62363;DHT22;48396;48.426;1.500;2023-05-01T05:39:02;16.80;85.90
62363;DHT22;48396;48.426;1.500;2023-05-01T05:41:28;16.70;85.90
62363;DHT22;48396;48.426;1.500;2023-05-01T05:43:54;16.80;85.90
62363;DHT22;48396;48.426;1.500;2023-05-01T05:46:19;16.80;86.00
62363;DHT22;48396;48.426;1.500;2023-05-01T05:48:45;16.80;86.20
62363;DHT22;48396;48.426;1.500;2023-05-01T05:51:11;16.80;86.40
62363;DHT22;48396;48.426;1.500;2023-05-01T05:53:36;16.70;86.90
62363;DHT22;48396;48.426;1.500;2023-05-01T05:56:02;16.70;86.90
62363;DHT22;48396;48.426;1.500;2023-05-01T05:58:27;16.70;87.00
62363;DHT22;48396;48.426;1.500;2023-05-01T06:00:53;16.70;87.00
62363;DHT22;48396;48.426;1.500;2023-05-01T06:03:20;16.80;87.20
62363;DHT22;48396;48.426;1.500;2023-05-01T06:05:45;16.80;87.10
62363;DHT22;48396;48.426;1.500;2023-05-01T06:08:11;16.70;87.60
62363;DHT22;48396;48.426;1.500;2023-05-01T06:10:40;16.80;87.70
62363;DHT22;48396;48.426;1.500;2023-05-01T06:13:06;16.70;87.90
62363;DHT22;48396;48.426;1.500;2023-05-01T06:15:36;16.80;88.20
62363;DHT22;48396;48.426;1.500;2023-05-01T06:18:02;16.80;88.10
62363;DHT22;48396;48.426;1.500;2023-05-01T06:20:27;16.90;88.20
62363;DHT22;48396;48.426;1.500;2023-05-01T06:22:53;16.90;88.40
62363;DHT22;48396;48.426;1.500;2023-05-01T06:25:20;16.90;88.60
62363;DHT22;48396;48.426;1.500;2023-05-01T06:27:46;16.80;88.70
62363;DHT22;48396;48.426;1.500;2023-05-01T06:30:11;16.80;88.80
62363;DHT22;48396;48.426;1.500;2023-05-01T06:32:37;16.90;89.10
62363;DHT22;48396;48.426;1.500;2023-05-01T06:35:03;16.80;89.30
62363;DHT22;48396;48.426;1.500;2023-05-01T06:37:29;16.80;89.30
62363;DHT22;48396;48.426;1.500;2023-05-01T06:39:54;16.90;89.40
62363;DHT22;48396;48.426;1.500;2023-05-01T06:42:20;16.90;89.50
62363;DHT22;48396;48.426;1.500;2023-05-01T06:44:46;16.80;89.80
62363;DHT22;48396;48.426;1.500;2023-05-01T06:47:11;16.80;90.00
62363;DHT22;48396;48.426;1.500;2023-05-01T06:49:37;16.80;90.00
62363;DHT22;48396;48.426;1.500;2023-05-01T06:52:02;16.80;90.20
62363;DHT22;48396;48.426;1.500;2023-05-01T06:54:28;16.70;90.20
62363;DHT22;48396;48.426;1.500;2023-05-01T06:56:54;16.70;90.30
62363;DHT22;48396;48.426;1.500;2023-05-01T06:59:20;16.80;90.30
62363;DHT22;48396;48.426;1.500;2023-05-01T07:01:45;16.70;90.50
62363;DHT22;48396;48.426;1.500;2023-05-01T07:04:11;16.70;90.60
62363;DHT22;48396;48.426;1.500;2023-05-01T07:06:37;16.70;90.60
62363;DHT22;48396;48.426;1.500;2023-05-01T07:09:03;16.70;90.60
62363;DHT22;48396;48.426;1.500;2023-05-01T07:11:29;16.80;90.60
62363;DHT22;48396;48.426;1.500;2023-05-01T07:13:55;16.90;90.60
62363;DHT22;48396;48.426;1.500;2023-05-01T07:16:21;16.90;90.50
62363;DHT22;48396;48.426;1.500;2023-05-01T07:18:46;16.90;90.60
62363;DHT22;48396;48.426;1.500;2023-05-01T07:21:12;16.90;90.60
62363;DHT22;48396;48.426;1.500;2023-05-01T07:23:38;17.00;90.60
62363;DHT22;48396;48.426;1.500;2023-05-01T07:26:03;17.00;90.50
62363;DHT22;48396;48.426;1.500;2023-05-01T07:28:30;17.00;90.50
62363;DHT22;48396;48.426;1.500;2023-05-01T07:30:56;17.10;90.50
62363;DHT22;48396;48.426;1.500;2023-05-01T07:33:22;17.10;90.40
62363;DHT22;48396;48.426;1.500;2023-05-01T07:35:50;17.10;90.50
62363;DHT22;48396;48.426;1.500;2023-05-01T07:38:16;17.10;90.60
62363;DHT22;48396;48.426;1.500;2023-05-01T07:40:41;17.20;90.60
62363;DHT22;48396;48.426;1.500;2023-05-01T07:43:07;17.20;90.60
62363;DHT22;48396;48.426;1.500;2023-05-01T07:45:36;17.20;90.60
62363;DHT22;48396;48.426;1.500;2023-05-01T07:48:02;17.20;90.60
62363;DHT22;48396;48.426;1.500;2023-05-01T07:50:29;17.20;90.70
62363;DHT22;48396;48.426;1.500;2023-05-01T07:52:54;17.30;90.60
62363;DHT22;48396;48.426;1.500;2023-05-01T07:55:21;17.30;90.70
62363;DHT22;48396;48.426;1.500;2023-05-01T07:57:47;17.20;90.80
62363;DHT22;48396;48.426;1.500;2023-05-01T08:00:13;17.30;90.80
62363;DHT22;48396;48.426;1.500;2023-05-01T08:02:39;17.40;90.80
62363;DHT22;48396;48.426;1.500;2023-05-01T08:05:05;17.40;90.80
62363;DHT22;48396;48.426;1.500;2023-05-01T08:07:31;17.40;90.70
62363;DHT22;48396;48.426;1.500;2023-05-01T08:09:57;17.50;90.70
62363;DHT22;48396;48.426;1.500;2023-05-01T08:12:24;17.60;90.70
62363;DHT22;48396;48.426;1.500;2023-05-01T08:14:50;17.40;90.80
62363;DHT22;48396;48.426;1.500;2023-05-01T08:17:15;17.20;90.90
62363;DHT22;48396;48.426;1.500;2023-05-01T08:19:41;17.30;91.00
62363;DHT22;48396;48.426;1.500;2023-05-01T08:22:07;17.30;91.00
62363;DHT22;48396;48.426;1.500;2023-05-01T08:24:32;17.30;90.90
62363;DHT22;48396;48.426;1.500;2023-05-01T08:29:42;17.50;90.60
62363;DHT22;48396;48.426;1.500;2023-05-01T08:32:08;17.50;90.50
62363;DHT22;48396;48.426;1.500;2023-05-01T08:34:33;17.50;90.30
62363;DHT22;48396;48.426;1.500;2023-05-01T08:36:59;17.50;90.00
62363;DHT22;48396;48.426;1.500;2023-05-01T08:39:24;17.50;89.90
62363;DHT22;48396;48.426;1.500;2023-05-01T08:41:50;17.40;90.00
62363;DHT22;48396;48.426;1.500;2023-05-01T08:44:18;17.40;89.80
62363;DHT22;48396;48.426;1.500;2023-05-01T08:47:14;17.40;89.80
62363;DHT22;48396;48.426;1.500;2023-05-01T08:49:41;17.50;89.70
62363;DHT22;48396;48.426;1.500;2023-05-01T08:52:08;17.40;90.00
62363;DHT22;48396;48.426;1.500;2023-05-01T08:54:36;17.50;90.00
62363;DHT22;48396;48.426;1.500;2023-05-01T08:57:05;17.50;90.00
62363;DHT22;48396;48.426;1.500;2023-05-01T08:59:34;17.50;90.00
62363;DHT22;48396;48.426;1.500;2023-05-01T09:02:01;17.40;90.10
62363;DHT22;48396;48.426;1.500;2023-05-01T09:04:36;17.40;90.20
62363;DHT22;48396;48.426;1.500;2023-05-01T09:07:03;17.40;90.00
62363;DHT22;48396;48.426;1.500;2023-05-01T09:09:30;17.50;90.00
62363;DHT22;48396;48.426;1.500;2023-05-01T09:12:00;17.50;89.70
62363;DHT22;48396;48.426;1.500;2023-05-01T09:14:46;17.50;89.90
62363;DHT22;48396;48.426;1.500;2023-05-01T09:17:12;17.60;89.60
62363;DHT22;48396;48.426;1.500;2023-05-01T09:19:38;17.70;89.60
62363;DHT22;48396;48.426;1.500;2023-05-01T09:22:05;17.60;89.60
62363;DHT22;48396;48.426;1.500;2023-05-01T09:24:31;17.60;89.50
62363;DHT22;48396;48.426;1.500;2023-05-01T09:26:57;17.70;89.40
62363;DHT22;48396;48.426;1.500;2023-05-01T09:29:43;17.60;89.50
62363;DHT22;48396;48.426;1.500;2023-05-01T09:34:38;17.70;89.50
62363;DHT22;48396;48.426;1.500;2023-05-01T09:37:03;17.80;89.50
62363;DHT22;48396;48.426;1.500;2023-05-01T09:39:29;17.80;89.50
62363;DHT22;48396;48.426;1.500;2023-05-01T09:42:22;17.80;89.50
62363;DHT22;48396;48.426;1.500;2023-05-01T09:44:48;17.90;89.50
62363;DHT22;48396;48.426;1.500;2023-05-01T09:47:20;17.90;89.70
62363;DHT22;48396;48.426;1.500;2023-05-01T09:49:47;18.00;89.60
62363;DHT22;48396;48.426;1.500;2023-05-01T09:52:13;18.10;89.40
62363;DHT22;48396;48.426;1.500;2023-05-01T09:54:39;18.20;89.30
62363;DHT22;48396;48.426;1.500;2023-05-01T09:57:05;18.20;89.30
62363;DHT22;48396;48.426;1.500;2023-05-01T09:59:31;18.20;89.40
62363;DHT22;48396;48.426;1.500;2023-05-01T10:01:59;18.30;89.40
62363;DHT22;48396;48.426;1.500;2023-05-01T10:04:31;18.30;89.10
62363;DHT22;48396;48.426;1.500;2023-05-01T10:06:59;18.40;88.40
62363;DHT22;48396;48.426;1.500;2023-05-01T10:09:34;18.40;88.40
62363;DHT22;48396;48.426;1.500;2023-05-01T10:12:00;18.50;88.10
62363;DHT22;48396;48.426;1.500;2023-05-01T10:14:26;18.60;87.80
62363;DHT22;48396;48.426;1.500;2023-05-01T10:16:54;18.60;87.40
62363;DHT22;48396;48.426;1.500;2023-05-01T10:19:22;18.70;87.10
62363;DHT22;48396;48.426;1.500;2023-05-01T10:22:06;18.70;86.10
62363;DHT22;48396;48.426;1.500;2023-05-01T10:24:32;18.60;86.40
62363;DHT22;48396;48.426;1.500;2023-05-01T10:26:58;18.60;86.60
62363;DHT22;48396;48.426;1.500;2023-05-01T10:29:26;18.60;86.30
62363;DHT22;48396;48.426;1.500;2023-05-01T10:31:54;18.60;86.00
62363;DHT22;48396;48.426;1.500;2023-05-01T10:34:21;18.50;86.30
62363;DHT22;48396;48.426;1.500;2023-05-01T10:36:59;18.40;86.30
62363;DHT22;48396;48.426;1.500;2023-05-01T10:39:31;18.50;86.20
62363;DHT22;48396;48.426;1.500;2023-05-01T10:44:26;18.50;85.80
62363;DHT22;48396;48.426;1.500;2023-05-01T10:46:53;18.60;86.20
62363;DHT22;48396;48.426;1.500;2023-05-01T10:49:18;18.60;87.50
62363;DHT22;48396;48.426;1.500;2023-05-01T10:54:31;18.40;89.10
62363;DHT22;48396;48.426;1.500;2023-05-01T10:57:02;18.20;90.20
62363;DHT22;48396;48.426;1.500;2023-05-01T11:02:28;18.30;90.30
62363;DHT22;48396;48.426;1.500;2023-05-01T11:04:54;18.30;90.40
62363;DHT22;48396;48.426;1.500;2023-05-01T11:07:21;18.40;90.30
62363;DHT22;48396;48.426;1.500;2023-05-01T11:09:54;18.50;90.60
62363;DHT22;48396;48.426;1.500;2023-05-01T11:15:31;18.70;91.00
62363;DHT22;48396;48.426;1.500;2023-05-01T11:17:58;18.70;91.40
62363;DHT22;48396;48.426;1.500;2023-05-01T11:25:34;18.70;91.70
62363;DHT22;48396;48.426;1.500;2023-05-01T11:28:01;18.70;91.40
62363;DHT22;48396;48.426;1.500;2023-05-01T11:30:45;18.80;91.50
62363;DHT22;48396;48.426;1.500;2023-05-01T11:33:11;18.90;91.60
62363;DHT22;48396;48.426;1.500;2023-05-01T11:35:37;18.90;91.80
62363;DHT22;48396;48.426;1.500;2023-05-01T11:38:03;18.90;91.70
62363;DHT22;48396;48.426;1.500;2023-05-01T11:40:30;18.90;91.60
62363;DHT22;48396;48.426;1.500;2023-05-01T11:45:26;18.90;91.90
62363;DHT22;48396;48.426;1.500;2023-05-01T11:47:52;19.00;92.00
62363;DHT22;48396;48.426;1.500;2023-05-01T11:50:18;19.00;91.90
62363;DHT22;48396;48.426;1.500;2023-05-01T11:52:50;18.90;92.00
62363;DHT22;48396;48.426;1.500;2023-05-01T11:55:20;18.80;91.90
62363;DHT22;48396;48.426;1.500;2023-05-01T11:57:46;18.60;91.00
62363;DHT22;48396;48.426;1.500;2023-05-01T12:00:34;18.50;91.30
62363;DHT22;48396;48.426;1.500;2023-05-01T12:03:07;18.40;91.50
62363;DHT22;48396;48.426;1.500;2023-05-01T12:05:36;18.40;92.20
62363;DHT22;48396;48.426;1.500;2023-05-01T12:08:12;18.50;92.70
62363;DHT22;48396;48.426;1.500;2023-05-01T12:10:39;18.50;92.20
62363;DHT22;48396;48.426;1.500;2023-05-01T12:13:06;18.30;91.10
62363;DHT22;48396;48.426;1.500;2023-05-01T12:15:38;18.30;92.30
62363;DHT22;48396;48.426;1.500;2023-05-01T12:18:05;18.40;91.60
62363;DHT22;48396;48.426;1.500;2023-05-01T12:20:51;18.50;91.50
62363;DHT22;48396;48.426;1.500;2023-05-01T12:23:19;18.70;91.00
62363;DHT22;48396;48.426;1.500;2023-05-01T12:25:53;18.70;90.80
62363;DHT22;48396;48.426;1.500;2023-05-01T12:28:19;18.90;90.60
62363;DHT22;48396;48.426;1.500;2023-05-01T12:30:48;19.00;90.40
62363;DHT22;48396;48.426;1.500;2023-05-01T12:33:18;19.00;90.10
62363;DHT22;48396;48.426;1.500;2023-05-01T12:35:46;19.00;90.20
62363;DHT22;48396;48.426;1.500;2023-05-01T12:38:14;19.00;89.90
62363;DHT22;48396;48.426;1.500;2023-05-01T12:40:50;19.00;90.10
62363;DHT22;48396;48.426;1.500;2023-05-01T12:43:36;19.20;90.10
62363;DHT22;48396;48.426;1.500;2023-05-01T12:46:03;19.30;89.10
62363;DHT22;48396;48.426;1.500;2023-05-01T12:48:30;19.20;86.80
62363;DHT22;48396;48.426;1.500;2023-05-01T12:50:57;19.00;87.30
62363;DHT22;48396;48.426;1.500;2023-05-01T12:53:25;18.90;86.00
62363;DHT22;48396;48.426;1.500;2023-05-01T12:55:54;19.00;87.10
62363;DHT22;48396;48.426;1.500;2023-05-01T12:58:20;19.20;87.10
62363;DHT22;48396;48.426;1.500;2023-05-01T13:00:52;19.40;87.30
62363;DHT22;48396;48.426;1.500;2023-05-01T13:03:25;19.50;87.30
62363;DHT22;48396;48.426;1.500;2023-05-01T13:06:00;19.50;84.30
62363;DHT22;48396;48.426;1.500;2023-05-01T13:10:56;19.50;83.80
62363;DHT22;48396;48.426;1.500;2023-05-01T13:13:33;19.50;84.30
62363;DHT22;48396;48.426;1.500;2023-05-01T13:16:10;19.60;83.90
62363;DHT22;48396;48.426;1.500;2023-05-01T13:18:52;19.80;83.20
62363;DHT22;48396;48.426;1.500;2023-05-01T13:21:23;19.80;82.40
62363;DHT22;48396;48.426;1.500;2023-05-01T13:23:59;19.90;82.50
62363;DHT22;48396;48.426;1.500;2023-05-01T13:26:32;20.00;82.60
62363;DHT22;48396;48.426;1.500;2023-05-01T13:29:00;20.10;82.60
62363;DHT22;48396;48.426;1.500;2023-05-01T13:31:27;20.20;83.60
62363;DHT22;48396;48.426;1.500;2023-05-01T13:33:54;20.20;81.80
62363;DHT22;48396;48.426;1.500;2023-05-01T13:36:21;20.30;82.00
62363;DHT22;48396;48.426;1.500;2023-05-01T13:38:52;20.40;81.60
62363;DHT22;48396;48.426;1.500;2023-05-01T13:41:25;20.50;80.70
62363;DHT22;48396;48.426;1.500;2023-05-01T13:43:52;20.50;79.80
62363;DHT22;48396;48.426;1.500;2023-05-01T13:46:20;20.30;78.60
62363;DHT22;48396;48.426;1.500;2023-05-01T13:48:46;20.40;79.50
62363;DHT22;48396;48.426;1.500;2023-05-01T13:51:14;20.40;79.00
62363;DHT22;48396;48.426;1.500;2023-05-01T13:53:40;20.50;78.80
62363;DHT22;48396;48.426;1.500;2023-05-01T13:56:10;20.50;78.20
62363;DHT22;48396;48.426;1.500;2023-05-01T13:58:54;20.50;77.80
62363;DHT22;48396;48.426;1.500;2023-05-01T14:01:20;20.50;76.90
62363;DHT22;48396;48.426;1.500;2023-05-01T14:03:47;20.50;76.60
62363;DHT22;48396;48.426;1.500;2023-05-01T14:06:15;20.40;75.70
62363;DHT22;48396;48.426;1.500;2023-05-01T14:08:41;20.40;76.20
62363;DHT22;48396;48.426;1.500;2023-05-01T14:11:08;20.50;76.10
62363;DHT22;48396;48.426;1.500;2023-05-01T14:13:42;20.50;76.40
62363;DHT22;48396;48.426;1.500;2023-05-01T14:16:30;20.60;75.70
62363;DHT22;48396;48.426;1.500;2023-05-01T14:18:56;20.60;75.00
62363;DHT22;48396;48.426;1.500;2023-05-01T14:21:25;20.40;74.40
62363;DHT22;48396;48.426;1.500;2023-05-01T14:23:55;20.40;74.80
62363;DHT22;48396;48.426;1.500;2023-05-01T14:26:21;20.30;74.60
62363;DHT22;48396;48.426;1.500;2023-05-01T14:28:50;20.20;73.90
62363;DHT22;48396;48.426;1.500;2023-05-01T14:31:25;20.20;74.50
62363;DHT22;48396;48.426;1.500;2023-05-01T14:34:02;20.20;74.10
62363;DHT22;48396;48.426;1.500;2023-05-01T14:36:29;20.20;72.70
62363;DHT22;48396;48.426;1.500;2023-05-01T14:39:01;20.10;72.50
62363;DHT22;48396;48.426;1.500;2023-05-01T14:41:27;20.20;71.90
62363;DHT22;48396;48.426;1.500;2023-05-01T14:43:54;20.10;71.90
62363;DHT22;48396;48.426;1.500;2023-05-01T14:48:53;20.30;71.20
62363;DHT22;48396;48.426;1.500;2023-05-01T14:51:19;20.40;71.60
62363;DHT22;48396;48.426;1.500;2023-05-01T14:53:45;20.30;70.80
62363;DHT22;48396;48.426;1.500;2023-05-01T14:56:11;20.40;71.40
62363;DHT22;48396;48.426;1.500;2023-05-01T14:58:37;20.50;71.70
62363;DHT22;48396;48.426;1.500;2023-05-01T15:01:03;20.60;71.70
62363;DHT22;48396;48.426;1.500;2023-05-01T15:03:29;20.50;71.60
62363;DHT22;48396;48.426;1.500;2023-05-01T15:05:54;20.40;72.50
62363;DHT22;48396;48.426;1.500;2023-05-01T15:08:21;20.40;72.80
62363;DHT22;48396;48.426;1.500;2023-05-01T15:10:47;20.40;71.70
62363;DHT22;48396;48.426;1.500;2023-05-01T15:13:30;20.40;70.80
62363;DHT22;48396;48.426;1.500;2023-05-01T15:15:56;20.50;71.60
62363;DHT22;48396;48.426;1.500;2023-05-01T15:18:22;20.40;71.60
62363;DHT22;48396;48.426;1.500;2023-05-01T15:20:48;20.70;72.20
62363;DHT22;48396;48.426;1.500;2023-05-01T15:23:13;20.80;71.40
62363;DHT22;48396;48.426;1.500;2023-05-01T15:25:39;20.90;71.50
62363;DHT22;48396;48.426;1.500;2023-05-01T15:28:07;21.00;70.80
62363;DHT22;48396;48.426;1.500;2023-05-01T15:30:33;21.00;71.10
62363;DHT22;48396;48.426;1.500;2023-05-01T15:32:58;20.90;69.40
62363;DHT22;48396;48.426;1.500;2023-05-01T15:35:24;20.90;70.60
62363;DHT22;48396;48.426;1.500;2023-05-01T15:37:50;21.00;70.50
62363;DHT22;48396;48.426;1.500;2023-05-01T15:40:16;21.10;71.10
62363;DHT22;48396;48.426;1.500;2023-05-01T15:42:41;21.20;71.30
62363;DHT22;48396;48.426;1.500;2023-05-01T15:45:07;21.30;71.50
62363;DHT22;48396;48.426;1.500;2023-05-01T15:47:34;21.40;71.00
62363;DHT22;48396;48.426;1.500;2023-05-01T15:49:59;21.40;70.40
62363;DHT22;48396;48.426;1.500;2023-05-01T15:52:25;21.40;70.50
62363;DHT22;48396;48.426;1.500;2023-05-01T15:54:51;21.40;70.40
62363;DHT22;48396;48.426;1.500;2023-05-01T15:57:16;21.40;70.30
62363;DHT22;48396;48.426;1.500;2023-05-01T15:59:42;21.40;70.00
62363;DHT22;48396;48.426;1.500;2023-05-01T16:02:08;21.30;69.80
62363;DHT22;48396;48.426;1.500;2023-05-01T16:04:34;21.10;70.20
62363;DHT22;48396;48.426;1.500;2023-05-01T16:07:03;21.00;70.60
62363;DHT22;48396;48.426;1.500;2023-05-01T16:09:30;21.00;70.50
62363;DHT22;48396;48.426;1.500;2023-05-01T16:11:56;21.00;70.40
62363;DHT22;48396;48.426;1.500;2023-05-01T16:14:24;21.00;70.50
62363;DHT22;48396;48.426;1.500;2023-05-01T16:16:49;20.90;70.70
62363;DHT22;48396;48.426;1.500;2023-05-01T16:19:15;20.80;71.00
62363;DHT22;48396;48.426;1.500;2023-05-01T16:21:41;20.70;71.20
62363;DHT22;48396;48.426;1.500;2023-05-01T16:24:07;20.70;71.60